Time;durP1;ratioP1;P1;durP2;ratioP2;P2;SDS_P1;SDS_P2;PMS_P1;PMS_P2;Temp;Humidity;BMP_temperature;BMP_pressure;BME280_temperature;BME280_humidity;BME280_pressure;Samples;Min_cycle;Max_cycle;Signal;HPM_P1;HPM_P2
2022/03/17 00:00:12;;;;;;;56.08;16.02;;;13.00;99.90;;;;;;4994358;28;20112;-72
2022/03/17 00:02:38;;;;;;;60.85;16.15;;;13.00;99.90;;;;;;4991389;28;20038;-72
2022/03/17 00:05:08;;;;;;;49.33;13.43;;;13.00;99.90;;;;;;4994501;28;20030;-71
2022/03/17 00:07:35;;;;;;;60.92;22.70;;;13.10;99.90;;;;;;4996034;28;20037;-72
2022/03/17 00:10:00;;;;;;;58.75;24.05;;;13.00;99.90;;;;;;4992648;28;20041;-72
2022/03/17 00:12:26;;;;;;;69.18;27.17;;;13.00;99.90;;;;;;4993520;28;20432;-73
2022/03/17 00:14:52;;;;;;;71.57;39.03;;;13.10;99.90;;;;;;4993239;28;20394;-72
2022/03/17 00:17:18;;;;;;;76.85;39.67;;;13.00;99.90;;;;;;4991012;28;20043;-72
2022/03/17 00:19:45;;;;;;;51.90;15.52;;;13.00;99.90;;;;;;4996626;28;20467;-71
2022/03/17 00:22:15;;;;;;;68.00;27.40;;;13.00;99.90;;;;;;4993402;28;20030;-71
2022/03/17 00:24:42;;;;;;;65.88;17.52;;;12.90;99.90;;;;;;4994406;28;20516;-71
2022/03/17 00:27:10;;;;;;;67.05;21.77;;;13.00;99.90;;;;;;4994246;28;20046;-67
2022/03/17 00:29:37;;;;;;;70.30;25.42;;;12.90;99.90;;;;;;4989952;28;20035;-72
2022/03/17 00:32:04;;;;;;;59.97;17.83;;;12.90;99.90;;;;;;4994742;28;20407;-71
2022/03/17 00:34:30;;;;;;;74.28;30.95;;;12.90;99.90;;;;;;4995221;28;20113;-71
2022/03/17 00:36:56;;;;;;;86.65;34.97;;;13.00;99.90;;;;;;4994298;28;20403;-72
2022/03/17 00:39:21;;;;;;;89.80;49.28;;;12.90;99.90;;;;;;4994759;28;20034;-71
2022/03/17 00:41:47;;;;;;;119.03;68.85;;;12.90;99.90;;;;;;4992028;28;20042;-71
2022/03/17 00:44:14;;;;;;;103.85;61.80;;;12.90;99.90;;;;;;4991661;28;20537;-71
2022/03/17 00:46:41;;;;;;;87.88;45.63;;;12.90;99.90;;;;;;4995864;28;20027;-71
2022/03/17 00:49:07;;;;;;;110.18;66.97;;;12.90;99.90;;;;;;4993041;28;20548;-71
2022/03/17 00:51:33;;;;;;;62.55;25.80;;;12.90;99.90;;;;;;4994615;28;20507;-71
2022/03/17 00:53:59;;;;;;;54.65;22.55;;;13.00;99.90;;;;;;4994014;28;20037;-69
2022/03/17 00:56:26;;;;;;;64.95;26.83;;;13.00;99.90;;;;;;4988982;28;20191;-71
2022/03/17 00:58:52;;;;;;;67.40;32.22;;;13.00;99.90;;;;;;4997624;28;20463;-72
2022/03/17 01:01:18;;;;;;;60.30;27.63;;;13.00;99.90;;;;;;4996625;28;20041;-71
2022/03/17 01:03:45;;;;;;;57.95;25.45;;;12.90;99.90;;;;;;4997692;28;20042;-71
2022/03/17 01:06:11;;;;;;;54.88;18.30;;;12.90;99.90;;;;;;4997666;28;20065;-71
2022/03/17 01:08:38;;;;;;;51.92;15.50;;;12.90;99.90;;;;;;4993183;28;20062;-71
2022/03/17 01:11:05;;;;;;;53.67;16.08;;;12.90;99.90;;;;;;4997002;28;20062;-72
2022/03/17 01:13:31;;;;;;;38.88;13.52;;;12.90;99.90;;;;;;4998853;28;20022;-71
2022/03/17 01:15:57;;;;;;;59.38;18.77;;;12.90;99.90;;;;;;4995900;28;20033;-71
2022/03/17 01:18:23;;;;;;;61.08;31.63;;;12.90;99.90;;;;;;4997440;28;20509;-71
2022/03/17 01:20:50;;;;;;;74.80;35.35;;;12.90;99.90;;;;;;4995986;28;20037;-71
2022/03/17 01:23:17;;;;;;;49.28;14.20;;;13.00;99.90;;;;;;4994708;28;20062;-71
2022/03/17 01:25:43;;;;;;;59.38;19.95;;;12.90;99.90;;;;;;4997823;28;20037;-71
2022/03/17 01:28:09;;;;;;;46.90;18.02;;;12.90;99.90;;;;;;4995644;28;20030;-71
2022/03/17 01:30:35;;;;;;;55.83;24.40;;;13.00;99.90;;;;;;4997142;28;20022;-71
2022/03/17 01:33:02;;;;;;;58.85;18.33;;;12.90;99.90;;;;;;4997405;28;20042;-71
2022/03/17 01:35:27;;;;;;;68.00;36.33;;;12.90;99.90;;;;;;4978007;28;20117;-71
2022/03/17 01:37:53;;;;;;;51.38;20.05;;;13.00;99.90;;;;;;4999144;28;20118;-71
2022/03/17 01:40:19;;;;;;;47.25;14.20;;;13.00;99.90;;;;;;4995297;28;20049;-71
2022/03/17 01:42:45;;;;;;;66.07;31.80;;;12.90;99.90;;;;;;4997135;28;20031;-71
2022/03/17 01:45:12;;;;;;;66.07;24.25;;;12.90;99.90;;;;;;4996925;28;20522;-71
2022/03/17 01:47:38;;;;;;;49.38;14.40;;;12.90;99.90;;;;;;4992442;28;20023;-71
2022/03/17 01:50:08;;;;;;;53.00;16.23;;;12.70;99.90;;;;;;4997117;28;20093;-71
2022/03/17 01:52:34;;;;;;;55.33;21.35;;;12.70;99.90;;;;;;4998244;28;20033;-71
2022/03/17 01:55:01;;;;;;;52.00;18.67;;;12.80;99.90;;;;;;4996408;28;20476;-71
2022/03/17 01:57:26;;;;;;;55.83;15.52;;;12.90;99.90;;;;;;4996697;28;20471;-71
2022/03/17 01:59:53;;;;;;;55.70;16.77;;;12.90;99.90;;;;;;4996027;28;20030;-71
2022/03/17 02:02:19;;;;;;;52.92;21.23;;;12.80;99.90;;;;;;4992181;28;20455;-71
2022/03/17 02:04:47;;;;;;;53.67;16.90;;;12.90;99.90;;;;;;4998591;28;20034;-71
2022/03/17 02:07:14;;;;;;;71.03;30.08;;;12.90;99.90;;;;;;4995291;28;20031;-71
2022/03/17 02:09:41;;;;;;;80.07;37.13;;;12.90;99.90;;;;;;4995588;28;20038;-71
2022/03/17 02:14:51;;;;;;;82.00;44.00;;;12.70;99.90;;;;;;4995458;28;20179;-71
2022/03/17 02:17:18;;;;;;;54.00;19.48;;;12.70;99.90;;;;;;4993523;28;20105;-71
2022/03/17 02:19:44;;;;;;;60.33;23.38;;;12.80;99.90;;;;;;4997313;28;20542;-71
2022/03/17 02:22:16;;;;;;;84.50;44.90;;;12.90;99.90;;;;;;4996620;28;20399;-71
2022/03/17 02:27:30;;;;;;;85.22;47.60;;;12.80;99.90;;;;;;4995074;28;20113;-71
2022/03/17 02:29:56;;;;;;;111.50;65.47;;;12.80;99.90;;;;;;4995534;28;20030;-72
2022/03/17 02:32:22;;;;;;;44.05;12.88;;;12.80;99.90;;;;;;4992654;28;20042;-71
2022/03/17 02:34:48;;;;;;;45.15;12.25;;;12.60;99.90;;;;;;4998211;28;20439;-72
2022/03/17 02:37:15;;;;;;;41.33;13.50;;;12.50;99.90;;;;;;4995985;28;20030;-71
2022/03/17 02:39:42;;;;;;;39.83;11.70;;;12.60;99.90;;;;;;4995918;28;20023;-72
2022/03/17 02:42:10;;;;;;;35.53;10.93;;;12.60;99.90;;;;;;4995774;28;20065;-71
2022/03/17 02:44:36;;;;;;;28.92;9.85;;;12.70;99.90;;;;;;4991062;28;20022;-72
2022/03/17 02:47:03;;;;;;;24.40;7.47;;;12.60;99.90;;;;;;4996214;28;20165;-72
2022/03/17 02:49:29;;;;;;;26.83;8.82;;;12.40;99.90;;;;;;4996772;28;20033;-71
2022/03/17 02:51:55;;;;;;;23.30;7.22;;;12.40;99.90;;;;;;4995693;28;20053;-72
2022/03/17 02:54:21;;;;;;;21.52;7.60;;;12.30;99.90;;;;;;4995379;28;20503;-72
2022/03/17 02:56:47;;;;;;;16.13;6.18;;;12.30;99.90;;;;;;4992333;28;20031;-71
2022/03/17 02:59:13;;;;;;;21.67;6.85;;;12.40;99.90;;;;;;4992529;28;20030;-72
2022/03/17 03:01:39;;;;;;;17.63;6.00;;;12.20;99.90;;;;;;4995620;28;20030;-72
2022/03/17 03:04:05;;;;;;;17.17;5.75;;;12.00;99.90;;;;;;4995649;28;20042;-71
2022/03/17 03:06:31;;;;;;;13.50;5.63;;;12.20;99.90;;;;;;4993977;28;20041;-72
2022/03/17 03:08:58;;;;;;;13.55;5.60;;;12.10;99.90;;;;;;4994681;28;20449;-70
2022/03/17 03:11:25;;;;;;;13.13;4.70;;;11.90;99.90;;;;;;4991434;28;20032;-72
2022/03/17 03:13:50;;;;;;;10.70;4.78;;;12.20;99.90;;;;;;4997288;28;20037;-71
2022/03/17 03:16:16;;;;;;;11.48;4.22;;;12.10;99.90;;;;;;4995315;28;20038;-71
2022/03/17 03:18:42;;;;;;;12.18;4.47;;;11.90;99.90;;;;;;4995124;28;20113;-71
2022/03/17 03:21:08;;;;;;;6.63;3.35;;;11.90;99.90;;;;;;4995031;28;20061;-72
2022/03/17 03:23:34;;;;;;;7.07;3.75;;;11.80;99.90;;;;;;4990095;28;20038;-71
2022/03/17 03:26:00;;;;;;;8.43;3.35;;;11.90;99.90;;;;;;4996156;28;20022;-70
2022/03/17 03:28:26;;;;;;;5.50;3.00;;;11.90;99.90;;;;;;4995843;28;20037;-71
2022/03/17 03:30:54;;;;;;;5.78;2.88;;;11.90;99.90;;;;;;4995001;28;20397;-71
2022/03/17 03:33:20;;;;;;;5.90;2.85;;;11.70;99.90;;;;;;4995076;28;20069;-71
2022/03/17 03:38:30;;;;;;;6.07;2.90;;;11.70;99.90;;;;;;4972824;28;20396;-71
2022/03/17 03:40:56;;;;;;;4.45;2.45;;;11.70;99.90;;;;;;4996957;28;20051;-71
2022/03/17 03:43:21;;;;;;;4.18;2.60;;;11.70;99.90;;;;;;4994726;28;20046;-70
2022/03/17 03:45:50;;;;;;;5.57;2.70;;;11.60;99.90;;;;;;4993488;28;20484;-70
2022/03/17 03:48:16;;;;;;;5.72;2.60;;;11.60;99.90;;;;;;4994868;28;20038;-71
2022/03/17 03:50:41;;;;;;;8.10;2.75;;;11.60;99.90;;;;;;4991707;28;20030;-71
2022/03/17 03:53:07;;;;;;;6.72;2.40;;;11.50;99.90;;;;;;4994072;28;20018;-71
2022/03/17 03:55:33;;;;;;;5.65;2.50;;;11.60;99.90;;;;;;4995987;28;20109;-71
2022/03/17 03:58:00;;;;;;;6.88;2.63;;;11.60;99.90;;;;;;4994927;28;20030;-70
2022/03/17 04:02:55;;;;;;;5.47;3.13;;;11.40;99.90;;;;;;4992223;28;20048;-70
2022/03/17 04:05:33;;;;;;;4.65;2.60;;;11.50;99.90;;;;;;4990700;28;20035;-70
2022/03/17 04:07:59;;;;;;;6.57;3.15;;;11.30;99.90;;;;;;5004249;28;20037;-70
2022/03/17 04:10:27;;;;;;;5.72;2.72;;;11.20;99.90;;;;;;4995156;28;20026;-71
2022/03/17 04:12:53;;;;;;;3.95;2.70;;;11.10;99.90;;;;;;4994533;28;20119;-71
2022/03/17 04:15:19;;;;;;;4.75;2.80;;;11.20;99.90;;;;;;4993177;28;20565;-71
2022/03/17 04:17:46;;;;;;;6.32;3.10;;;11.30;99.90;;;;;;4992684;28;20412;-71
2022/03/17 04:20:11;;;;;;;6.20;3.03;;;11.20;99.90;;;;;;4992488;28;20030;-70
2022/03/17 04:22:37;;;;;;;5.63;2.80;;;11.20;99.90;;;;;;4995950;28;20472;-70
2022/03/17 04:25:04;;;;;;;3.30;2.90;;;11.10;99.90;;;;;;4992978;28;20490;-70
2022/03/17 04:27:30;;;;;;;4.57;3.20;;;11.20;99.90;;;;;;4994816;28;20026;-71
2022/03/17 04:29:56;;;;;;;5.65;3.35;;;11.20;99.90;;;;;;4993585;28;20512;-70
2022/03/17 04:32:22;;;;;;;5.13;3.78;;;11.10;99.90;;;;;;4990907;28;20152;-70
2022/03/17 04:34:48;;;;;;;8.73;4.20;;;11.10;99.90;;;;;;4999686;28;20030;-71
2022/03/17 04:37:14;;;;;;;5.75;3.40;;;11.10;99.90;;;;;;4998053;28;20029;-70
2022/03/17 04:39:39;;;;;;;6.05;3.60;;;11.10;99.90;;;;;;4998119;28;20034;-70
2022/03/17 04:42:05;;;;;;;4.65;3.38;;;11.10;99.90;;;;;;4996315;28;20046;-70
2022/03/17 04:44:31;;;;;;;4.40;3.80;;;11.10;99.90;;;;;;4993814;28;20045;-70
2022/03/17 04:46:57;;;;;;;5.15;3.83;;;11.10;99.90;;;;;;5000659;28;20110;-71
2022/03/17 04:49:23;;;;;;;7.25;3.97;;;11.10;99.90;;;;;;4997586;28;20038;-70
2022/03/17 04:51:49;;;;;;;5.90;3.90;;;11.20;99.90;;;;;;4997730;28;20033;-70
2022/03/17 04:54:15;;;;;;;5.38;3.88;;;11.20;99.90;;;;;;4996645;28;20022;-70
2022/03/17 04:56:41;;;;;;;6.63;4.20;;;11.00;99.90;;;;;;4993565;28;20041;-71
2022/03/17 04:59:06;;;;;;;6.78;4.07;;;11.00;99.90;;;;;;4997862;28;20027;-70
2022/03/17 05:01:32;;;;;;;7.47;4.70;;;11.00;99.90;;;;;;4998826;28;20031;-70
2022/03/17 05:03:58;;;;;;;5.97;4.47;;;11.00;99.90;;;;;;4995910;28;20042;-71
2022/03/17 05:06:24;;;;;;;8.27;4.85;;;11.10;99.90;;;;;;4997519;28;20038;-70
2022/03/17 05:08:49;;;;;;;8.48;4.93;;;11.10;99.90;;;;;;4995992;28;20165;-71
2022/03/17 05:11:15;;;;;;;6.63;4.70;;;11.00;99.90;;;;;;4995377;28;20456;-70
2022/03/17 05:13:44;;;;;;;9.15;5.20;;;11.00;99.90;;;;;;4999694;28;20035;-70
2022/03/17 05:16:10;;;;;;;6.78;5.20;;;10.90;99.90;;;;;;4997798;28;20080;-70
2022/03/17 05:18:36;;;;;;;6.18;5.38;;;10.90;99.90;;;;;;4997075;28;20105;-70
2022/03/17 05:21:02;;;;;;;5.90;5.30;;;10.90;99.90;;;;;;4995935;28;20120;-70
2022/03/17 05:23:30;;;;;;;6.55;5.32;;;10.90;99.90;;;;;;4977853;28;20034;-71
2022/03/17 05:25:57;;;;;;;7.03;5.22;;;10.90;99.90;;;;;;5006674;28;20506;-70
2022/03/17 05:28:23;;;;;;;5.97;5.22;;;10.90;99.90;;;;;;4997694;28;20034;-70
2022/03/17 05:30:49;;;;;;;7.68;5.80;;;10.80;99.90;;;;;;4997113;28;20120;-70
2022/03/17 05:33:15;;;;;;;9.45;6.93;;;10.90;99.90;;;;;;4995467;28;20034;-70
2022/03/17 05:35:42;;;;;;;8.30;6.03;;;10.90;99.90;;;;;;4994154;28;20022;-70
2022/03/17 05:38:08;;;;;;;7.80;5.90;;;10.80;99.90;;;;;;4996585;28;20033;-70
2022/03/17 05:40:34;;;;;;;6.90;6.20;;;10.80;99.90;;;;;;4998528;28;20042;-70
2022/03/17 05:43:02;;;;;;;8.88;6.05;;;10.90;99.90;;;;;;4995622;28;20042;-71
2022/03/17 05:45:29;;;;;;;8.75;6.20;;;10.80;99.90;;;;;;4995794;28;20027;-70
2022/03/17 05:47:59;;;;;;;9.68;6.65;;;10.90;99.90;;;;;;4995970;28;20121;-70
2022/03/17 05:50:30;;;;;;;8.48;6.38;;;10.80;99.90;;;;;;4992949;28;20056;-70
2022/03/17 05:52:56;;;;;;;9.93;6.65;;;10.80;99.90;;;;;;5006011;28;20022;-70
2022/03/17 05:55:26;;;;;;;8.55;7.07;;;10.80;99.90;;;;;;4997165;28;20454;-70
2022/03/17 05:57:54;;;;;;;9.55;6.85;;;10.80;99.90;;;;;;4996669;28;20621;-70
2022/03/17 06:00:26;;;;;;;10.85;7.40;;;10.70;99.90;;;;;;4995116;28;20113;-71
2022/03/17 06:02:52;;;;;;;12.55;7.80;;;10.70;99.90;;;;;;4995296;28;20105;-70
2022/03/17 06:05:19;;;;;;;10.73;7.70;;;10.70;99.90;;;;;;4993260;28;20096;-70
2022/03/17 06:07:47;;;;;;;10.05;7.68;;;10.70;99.90;;;;;;4999080;28;20529;-70
2022/03/17 06:10:15;;;;;;;10.23;7.35;;;10.70;99.90;;;;;;4996592;28;20065;-70
2022/03/17 06:12:43;;;;;;;9.35;7.25;;;10.60;99.90;;;;;;4995088;28;20023;-70
2022/03/17 06:15:09;;;;;;;10.30;7.15;;;10.70;99.90;;;;;;4995985;28;20084;-71
2022/03/17 06:17:44;;;;;;;10.40;7.10;;;10.80;99.90;;;;;;4993159;28;20042;-71
2022/03/17 06:20:12;;;;;;;10.73;7.00;;;10.70;99.90;;;;;;4994035;28;20495;-70
2022/03/17 06:22:43;;;;;;;11.43;7.40;;;10.70;99.90;;;;;;4994486;28;20030;-70
2022/03/17 06:25:11;;;;;;;11.57;7.72;;;10.60;99.90;;;;;;4996200;28;20035;-70
2022/03/17 06:27:37;;;;;;;12.60;7.78;;;10.60;99.90;;;;;;4996567;28;20499;-70
2022/03/17 06:30:08;;;;;;;12.25;7.35;;;10.60;99.90;;;;;;4995737;28;20038;-70
2022/03/17 06:32:34;;;;;;;10.40;7.35;;;10.60;99.90;;;;;;4992209;28;20507;-71
2022/03/17 06:35:00;;;;;;;10.45;7.30;;;10.60;99.90;;;;;;4997731;28;20023;-70
2022/03/17 06:37:26;;;;;;;13.25;7.43;;;10.50;99.90;;;;;;4996517;28;20030;-70
2022/03/17 06:39:53;;;;;;;13.30;7.82;;;10.50;99.90;;;;;;4994236;28;20029;-70
2022/03/17 06:42:20;;;;;;;13.77;7.70;;;10.40;99.90;;;;;;4995867;28;20045;-70
2022/03/17 06:44:46;;;;;;;10.55;7.80;;;10.40;99.90;;;;;;4993340;28;20034;-70
2022/03/17 06:47:12;;;;;;;12.93;7.93;;;10.40;99.90;;;;;;4993952;28;20093;-70
2022/03/17 06:49:38;;;;;;;11.65;7.45;;;10.40;99.90;;;;;;4997922;28;20387;-69
2022/03/17 06:52:04;;;;;;;10.85;7.10;;;10.40;99.90;;;;;;4994381;28;20027;-69
2022/03/17 06:54:30;;;;;;;13.07;7.47;;;10.40;99.90;;;;;;4995500;28;20121;-70
2022/03/17 06:56:55;;;;;;;13.05;7.53;;;10.30;99.90;;;;;;4994869;28;20419;-70
2022/03/17 06:59:21;;;;;;;16.13;7.78;;;10.20;99.90;;;;;;4991842;28;20483;-70
2022/03/17 07:01:47;;;;;;;13.52;7.53;;;10.20;99.90;;;;;;4996352;28;20453;-69
2022/03/17 07:04:13;;;;;;;13.80;7.50;;;10.20;99.90;;;;;;4995475;28;20395;-71
2022/03/17 07:06:38;;;;;;;12.52;7.43;;;10.30;99.90;;;;;;4995271;28;20075;-71
2022/03/17 07:09:04;;;;;;;13.98;7.55;;;10.20;99.90;;;;;;4995791;28;20026;-71
2022/03/17 07:11:30;;;;;;;13.23;7.82;;;10.20;99.90;;;;;;4991260;28;20435;-71
2022/03/17 07:13:56;;;;;;;11.07;6.97;;;10.20;99.90;;;;;;4997027;28;20130;-71
2022/03/17 07:16:21;;;;;;;13.82;7.35;;;10.20;99.90;;;;;;4995222;28;20038;-72
2022/03/17 07:18:49;;;;;;;12.25;6.63;;;10.20;99.90;;;;;;4993710;28;20030;-71
2022/03/17 07:21:15;;;;;;;13.98;7.07;;;10.30;99.90;;;;;;4995125;28;20124;-72
2022/03/17 07:23:42;;;;;;;12.63;7.25;;;10.30;99.90;;;;;;4992711;28;20551;-71
2022/03/17 07:26:07;;;;;;;14.30;7.05;;;10.20;99.90;;;;;;4993413;28;20054;-73
2022/03/17 07:28:33;;;;;;;12.10;6.40;;;10.30;99.90;;;;;;4995796;28;20495;-72
2022/03/17 07:30:59;;;;;;;11.00;6.85;;;10.40;99.90;;;;;;4993622;28;20022;-71
2022/03/17 07:33:24;;;;;;;11.43;6.65;;;10.30;99.90;;;;;;4995018;28;20034;-72
2022/03/17 07:35:50;;;;;;;14.00;6.97;;;10.20;99.90;;;;;;4993319;28;20030;-71
2022/03/17 07:38:16;;;;;;;16.00;6.82;;;10.30;99.90;;;;;;4992758;28;20533;-71
2022/03/17 07:40:43;;;;;;;13.75;6.80;;;10.20;99.90;;;;;;4994748;28;20084;-71
2022/03/17 07:43:08;;;;;;;13.98;6.97;;;10.30;99.90;;;;;;4993975;28;20177;-73
2022/03/17 07:45:34;;;;;;;14.68;7.30;;;10.30;99.90;;;;;;4993899;28;20105;-73
2022/03/17 07:48:00;;;;;;;15.18;7.07;;;10.30;99.90;;;;;;4993606;28;20060;-72
2022/03/17 07:50:26;;;;;;;13.15;6.72;;;10.40;99.90;;;;;;4990241;28;20033;-73
2022/03/17 07:52:51;;;;;;;16.63;6.95;;;10.40;99.90;;;;;;4996225;28;20068;-71
2022/03/17 07:55:17;;;;;;;22.92;7.57;;;10.50;99.90;;;;;;4994069;28;20521;-73
2022/03/17 07:57:44;;;;;;;14.38;6.40;;;10.40;99.90;;;;;;4992501;28;20030;-72
2022/03/17 08:00:14;;;;;;;13.32;6.35;;;10.40;99.90;;;;;;4994280;28;20034;-71
2022/03/17 08:02:41;;;;;;;10.52;6.20;;;10.40;99.90;;;;;;4990893;28;20066;-71
2022/03/17 08:05:08;;;;;;;25.65;8.10;;;10.50;99.90;;;;;;4994674;28;20455;-71
2022/03/17 08:07:34;;;;;;;14.02;6.10;;;10.40;99.90;;;;;;4994853;28;20024;-71
2022/03/17 08:09:59;;;;;;;16.02;6.53;;;10.40;99.90;;;;;;4993101;28;20092;-67
2022/03/17 08:12:30;;;;;;;13.35;6.40;;;10.40;99.90;;;;;;4992595;28;20030;-67
2022/03/17 08:14:56;;;;;;;11.57;5.75;;;10.50;99.90;;;;;;4993487;28;20501;-69
2022/03/17 08:17:22;;;;;;;11.50;5.85;;;10.50;99.90;;;;;;4990915;28;20735;-67
2022/03/17 08:19:48;;;;;;;11.38;6.32;;;10.40;99.90;;;;;;4994295;28;20474;-68
2022/03/17 08:22:13;;;;;;;11.88;6.15;;;10.40;99.90;;;;;;4994390;28;20022;-68
2022/03/17 08:24:39;;;;;;;11.65;6.03;;;10.40;99.90;;;;;;4994099;28;20325;-68
2022/03/17 08:27:05;;;;;;;15.95;6.28;;;10.50;99.90;;;;;;4994274;28;20042;-68
2022/03/17 08:29:31;;;;;;;15.38;6.72;;;10.50;99.90;;;;;;4988703;28;20466;-67
2022/03/17 08:31:57;;;;;;;11.27;5.88;;;10.60;99.90;;;;;;4996275;28;20015;-67
2022/03/17 08:34:23;;;;;;;11.13;6.65;;;10.60;99.90;;;;;;4993707;28;20037;-68
2022/03/17 08:36:54;;;;;;;15.85;6.60;;;10.60;99.90;;;;;;4993204;28;20023;-67
2022/03/17 08:39:20;;;;;;;12.65;7.22;;;10.50;99.90;;;;;;4994103;28;20045;-67
2022/03/17 08:41:46;;;;;;;13.43;6.80;;;10.70;99.90;;;;;;4991413;28;20070;-68
2022/03/17 08:44:12;;;;;;;35.13;9.95;;;10.80;99.90;;;;;;4992187;28;20070;-68
2022/03/17 08:49:23;;;;;;;16.30;7.00;;;10.60;99.90;;;;;;4993423;28;20037;-69
2022/03/17 08:52:01;;;;;;;11.10;6.88;;;10.70;99.90;;;;;;4992817;28;20447;-69
2022/03/17 08:54:29;;;;;;;14.02;7.15;;;10.80;99.90;;;;;;4993702;28;20092;-70
2022/03/17 08:56:59;;;;;;;14.77;7.47;;;10.70;99.90;;;;;;4990776;28;20021;-69
2022/03/17 08:59:34;;;;;;;17.73;7.53;;;10.70;99.90;;;;;;4989246;28;20122;-70
2022/03/17 09:02:03;;;;;;;13.52;7.30;;;10.70;99.90;;;;;;5003664;28;20029;-69
2022/03/17 09:04:29;;;;;;;12.98;8.10;;;10.70;99.90;;;;;;4993846;28;20031;-70
2022/03/17 09:06:59;;;;;;;15.38;7.38;;;10.70;99.90;;;;;;4993680;28;20035;-70
2022/03/17 09:09:30;;;;;;;13.18;7.25;;;10.80;99.90;;;;;;4993891;28;20716;-70
2022/03/17 09:11:56;;;;;;;13.43;7.82;;;10.80;99.90;;;;;;4992699;28;20032;-68
2022/03/17 09:14:22;;;;;;;12.93;8.40;;;10.70;99.90;;;;;;4990471;28;20027;-69
2022/03/17 09:16:49;;;;;;;15.27;8.07;;;10.70;99.90;;;;;;4995278;28;20088;-69
2022/03/17 09:19:15;;;;;;;12.63;7.82;;;10.80;99.90;;;;;;4994839;28;20033;-68
2022/03/17 09:21:41;;;;;;;11.32;7.47;;;10.70;99.90;;;;;;4997413;28;20084;-68
2022/03/17 09:24:07;;;;;;;14.88;7.72;;;10.70;99.90;;;;;;4997054;28;20113;-68
2022/03/17 09:26:33;;;;;;;14.85;7.97;;;10.70;99.90;;;;;;4990671;28;20145;-68
2022/03/17 09:28:59;;;;;;;15.80;7.97;;;10.70;99.90;;;;;;4999159;28;20030;-68
2022/03/17 09:31:25;;;;;;;13.77;7.97;;;10.80;99.90;;;;;;4996505;28;20027;-69
2022/03/17 09:33:51;;;;;;;19.23;13.40;;;10.90;99.90;;;;;;4997307;28;20034;-69
2022/03/17 09:36:17;;;;;;;13.45;7.70;;;10.90;99.90;;;;;;4995804;28;20026;-68
2022/03/17 09:38:44;;;;;;;12.35;7.32;;;10.80;99.90;;;;;;4994162;28;20023;-68
2022/03/17 09:41:32;;;;;;;16.90;10.07;;;10.70;99.90;;;;;;4995736;28;20130;-68
2022/03/17 09:43:58;;;;;;;13.43;7.65;;;10.80;99.90;;;;;;5006685;28;20042;-68
2022/03/17 09:46:26;;;;;;;12.82;7.53;;;10.80;99.90;;;;;;4997250;28;20027;-68
2022/03/17 09:48:53;;;;;;;10.57;6.95;;;10.70;99.90;;;;;;4996664;28;20033;-68
2022/03/17 09:51:28;;;;;;;13.77;8.13;;;10.70;99.90;;;;;;4996887;28;20036;-68
2022/03/17 09:53:59;;;;;;;14.98;8.13;;;10.80;99.90;;;;;;4994335;28;20034;-68
2022/03/17 09:56:26;;;;;;;15.57;8.05;;;10.90;99.90;;;;;;4992738;28;20089;-68
2022/03/17 09:58:53;;;;;;;14.90;7.93;;;10.90;99.90;;;;;;4998942;28;20037;-68
2022/03/17 10:01:20;;;;;;;132.25;78.45;;;10.80;99.90;;;;;;4996765;28;20110;-68
2022/03/17 10:03:46;;;;;;;15.43;8.60;;;10.90;99.90;;;;;;4996723;28;20042;-69
2022/03/17 10:06:14;;;;;;;13.95;7.80;;;10.80;99.90;;;;;;4995448;28;20026;-69
2022/03/17 10:08:42;;;;;;;12.18;8.35;;;10.90;99.90;;;;;;4993396;28;20037;-68
2022/03/17 10:11:08;;;;;;;15.45;8.55;;;11.10;99.90;;;;;;4996323;28;20515;-67
2022/03/17 10:13:44;;;;;;;14.55;8.35;;;11.10;99.90;;;;;;4997933;28;20085;-67
2022/03/17 10:16:17;;;;;;;14.00;7.68;;;10.90;99.90;;;;;;4995234;28;20030;-67
2022/03/17 10:18:45;;;;;;;12.17;7.83;;;11.10;99.90;;;;;;4996405;28;20030;-66
2022/03/17 10:21:34;;;;;;;578.72;519.55;;;11.10;99.90;;;;;;4996415;28;20032;-67
2022/03/17 10:24:06;;;;;;;14.10;8.75;;;11.10;99.90;;;;;;4995750;28;20528;-65
2022/03/17 10:26:39;;;;;;;12.90;7.75;;;11.00;99.90;;;;;;4977403;28;20031;-67
2022/03/17 10:29:11;;;;;;;14.95;8.50;;;11.10;99.90;;;;;;4996829;28;20109;-64
2022/03/17 10:31:55;;;;;;;15.32;7.85;;;11.10;99.90;;;;;;4996971;28;20399;-68
2022/03/17 10:34:23;;;;;;;11.55;7.80;;;11.20;99.90;;;;;;4994955;28;20031;-67
2022/03/17 10:36:50;;;;;;;14.93;8.30;;;11.30;99.90;;;;;;4995742;28;20035;-68
2022/03/17 10:39:18;;;;;;;14.48;7.65;;;11.20;99.90;;;;;;4995406;28;20030;-67
2022/03/17 10:41:46;;;;;;;11.45;7.35;;;11.30;99.90;;;;;;4991906;28;20049;-67
2022/03/17 10:44:15;;;;;;;15.30;8.75;;;11.20;99.90;;;;;;4992127;28;20348;-69
2022/03/17 10:47:01;;;;;;;14.23;7.93;;;11.30;99.90;;;;;;4995969;28;20034;-71
2022/03/17 10:49:29;;;;;;;14.15;7.65;;;11.20;99.90;;;;;;4995041;28;20057;-70
2022/03/17 10:51:56;;;;;;;12.65;7.88;;;11.20;99.90;;;;;;4994641;28;20022;-68
2022/03/17 10:54:23;;;;;;;14.40;7.43;;;11.30;99.90;;;;;;4994414;28;20038;-68
2022/03/17 10:57:11;;;;;;;11.82;7.95;;;11.30;99.90;;;;;;4993761;28;20527;-68
2022/03/17 10:59:43;;;;;;;14.18;8.27;;;11.30;99.90;;;;;;4978363;28;20026;-69
2022/03/17 11:02:21;;;;;;;11.82;8.35;;;11.20;99.90;;;;;;4994886;28;20527;-69
2022/03/17 11:04:47;;;;;;;16.23;8.65;;;11.30;99.90;;;;;;4996432;28;20043;-69
2022/03/17 11:07:16;;;;;;;11.30;8.25;;;11.30;99.90;;;;;;4994919;28;20085;-67
2022/03/17 11:09:44;;;;;;;15.35;8.57;;;11.10;99.90;;;;;;4993791;28;20030;-68
2022/03/17 11:12:11;;;;;;;14.43;8.50;;;11.20;99.90;;;;;;4993669;28;20057;-68
2022/03/17 11:14:53;;;;;;;66.57;51.67;;;11.30;99.90;;;;;;4991601;28;20077;-69
2022/03/17 11:17:31;;;;;;;14.68;8.95;;;11.40;99.90;;;;;;4991901;28;20026;-70
2022/03/17 11:20:08;;;;;;;14.65;9.13;;;11.30;99.90;;;;;;5018116;28;20052;-68
2022/03/17 11:22:34;;;;;;;11.60;8.95;;;11.30;99.90;;;;;;4995917;28;20447;-68
2022/03/17 11:25:29;;;;;;;12.65;8.32;;;11.30;99.90;;;;;;4993504;28;20118;-68
2022/03/17 11:28:00;;;;;;;14.77;9.27;;;11.30;99.90;;;;;;4984724;28;20039;-68
2022/03/17 11:30:47;;;;;;;17.05;9.50;;;11.40;99.90;;;;;;4994810;28;20022;-69
2022/03/17 11:33:48;;;;;;;19.90;14.57;;;11.40;99.90;;;;;;4993598;28;20041;-68
2022/03/17 11:36:21;;;;;;;14.60;9.68;;;11.60;99.90;;;;;;4994783;28;20026;-69
2022/03/17 11:39:08;;;;;;;11.95;8.60;;;11.50;99.90;;;;;;4993103;28;20085;-68
2022/03/17 11:41:42;;;;;;;16.45;8.98;;;11.40;99.90;;;;;;4976178;28;20061;-69
2022/03/17 11:44:07;;;;;;;14.90;9.80;;;11.60;99.90;;;;;;4993854;28;20080;-69
2022/03/17 11:46:42;;;;;;;13.43;9.25;;;11.60;99.90;;;;;;4995881;28;20125;-68
2022/03/17 11:49:27;;;;;;;13.10;9.10;;;11.60;99.90;;;;;;4994842;28;20029;-68
2022/03/17 11:51:53;;;;;;;12.68;9.27;;;11.70;99.90;;;;;;4993241;28;20058;-66
2022/03/17 11:54:19;;;;;;;12.00;9.45;;;11.70;99.90;;;;;;4994999;28;20045;-65
2022/03/17 11:56:46;;;;;;;19.23;12.60;;;11.80;99.90;;;;;;4992132;28;20061;-68
2022/03/17 11:59:16;;;;;;;12.98;9.15;;;11.80;99.90;;;;;;4993163;28;20034;-66
2022/03/17 12:01:47;;;;;;;12.40;9.18;;;11.70;99.90;;;;;;4994929;28;20038;-67
2022/03/17 12:04:33;;;;;;;15.35;9.93;;;11.70;99.90;;;;;;4993262;28;20403;-67
2022/03/17 12:07:09;;;;;;;13.07;9.32;;;11.60;99.90;;;;;;4994015;28;20022;-66
2022/03/17 12:09:36;;;;;;;14.02;10.05;;;11.60;99.90;;;;;;4993803;28;20026;-64
2022/03/17 12:12:17;;;;;;;11.10;8.98;;;11.60;99.90;;;;;;4994579;28;20050;-66
2022/03/17 12:14:52;;;;;;;14.27;9.68;;;11.40;99.90;;;;;;4975527;28;20557;-65
2022/03/17 12:17:19;;;;;;;16.80;9.57;;;11.50;99.90;;;;;;4990625;28;20454;-66
2022/03/17 12:19:49;;;;;;;11.80;9.20;;;11.60;99.90;;;;;;4996281;28;20038;-67
2022/03/17 12:22:18;;;;;;;14.43;9.60;;;11.50;99.90;;;;;;4994409;28;20561;-67
2022/03/17 12:24:45;;;;;;;13.65;9.07;;;11.80;99.90;;;;;;4994420;28;20042;-67
2022/03/17 12:27:15;;;;;;;10.57;9.48;;;11.70;99.90;;;;;;4994343;28;20105;-68
2022/03/17 12:29:42;;;;;;;14.27;9.75;;;11.70;99.90;;;;;;4990350;28;20034;-68
2022/03/17 12:32:12;;;;;;;12.57;10.13;;;11.80;99.90;;;;;;4992740;28;20030;-69
2022/03/17 12:34:39;;;;;;;13.55;10.23;;;11.70;99.90;;;;;;4996166;28;20022;-69
2022/03/17 12:37:06;;;;;;;22.35;18.17;;;11.70;99.90;;;;;;4992409;28;20121;-68
2022/03/17 12:39:33;;;;;;;24.48;18.38;;;11.90;99.90;;;;;;4994105;28;20057;-70
2022/03/17 12:42:01;;;;;;;16.02;12.32;;;12.00;99.90;;;;;;4992399;28;20046;-69
2022/03/17 12:44:28;;;;;;;18.35;14.88;;;11.80;99.90;;;;;;4990318;28;20043;-69
2022/03/17 12:46:55;;;;;;;19.30;14.23;;;11.50;99.90;;;;;;4996309;28;20026;-69
2022/03/17 12:49:22;;;;;;;22.67;15.07;;;11.70;99.90;;;;;;4994247;28;20399;-70
2022/03/17 12:51:51;;;;;;;16.65;11.00;;;11.80;99.90;;;;;;4993025;28;20484;-70